| time (UTC) | temp F | wind direction | speed knots | gust knots | rain 1hr in | rain 24hr in | rain mn in | humidity % | barometer mb |
| 20260504082007 | 54 | 117 | 2.6 | 3.5 | 0.00 | 0.00 | 0.00 | 70 | 1013.6 |
| 20260504081006 | 54 | 117 | 2.6 | 3.5 | 0.00 | 0.00 | 0.00 | 70 | 1013.6 |
| 20260504050001 | 56 | 163 | 0.9 | 3.5 | 0.00 | 0.00 | 0.00 | 64 | 1014.3 |
| 20260504045001 | 56 | 155 | 1.7 | 2.6 | 0.00 | 0.00 | 0.00 | 64 | 1014.4 |
| 20260504044000 | 56 | 113 | 0.9 | 2.6 | 0.00 | 0.00 | 0.00 | 64 | 1014.5 |
| 20260504043001 | 56 | 111 | 1.7 | 2.6 | 0.00 | 0.00 | 0.00 | 63 | 1014.7 |
| 20260504042000 | 56 | 136 | 0.9 | 1.7 | 0.00 | 0.00 | 0.00 | 62 | 1014.9 |
| 20260504041000 | 56 | 136 | 0.9 | 1.7 | 0.00 | 0.00 | 0.00 | 62 | 1014.9 |
| 20260504035959 | 57 | 136 | 0.9 | 1.7 | 0.00 | 0.00 | 0.00 | 62 | 1015.0 |
| 20260504034959 | 57 | 210 | 0.9 | 1.7 | 0.00 | 0.00 | 0.00 | 62 | 1015.1 |
| 20260504033958 | 57 | 210 | 0.9 | 0.9 | 0.00 | 0.00 | 0.00 | 62 | 1015.1 |
| 20260504033028 | 57 | 210 | 0.0 | 0.9 | 0.00 | 0.00 | 0.00 | 61 | 1015.3 |
| 20260504031958 | 58 | 210 | 0.0 | 0.9 | 0.00 | 0.00 | 0.00 | 60 | 1015.3 |
| 20260504030958 | 58 | 210 | 0.0 | 0.9 | 0.00 | 0.00 | 0.00 | 59 | 1015.3 |
| 20260504025957 | 58 | 210 | 0.0 | 0.9 | 0.00 | 0.00 | 0.00 | 58 | 1015.2 |
| 20260504024957 | 59 | 210 | 0.0 | 0.9 | 0.00 | 0.00 | 0.00 | 57 | 1015.2 |
| 20260504023957 | 59 | 210 | 0.0 | 0.9 | 0.00 | 0.00 | 0.00 | 55 | 1015.2 |
| 20260504022957 | 60 | 210 | 0.0 | 0.9 | 0.00 | 0.00 | 0.00 | 55 | 1015.2 |
| 20260504021957 | 60 | 210 | 0.0 | 0.9 | 0.00 | 0.00 | 0.00 | 54 | 1015.1 |
| 20260504021026 | 60 | 210 | 0.0 | 0.9 | 0.00 | 0.00 | 0.00 | 55 | 1015.0 |
| 20260504020026 | 60 | 210 | 0.0 | 0.0 | 0.00 | 0.00 | 0.00 | 54 | 1015.0 |
| 20260504014955 | 61 | 210 | 0.0 | 0.9 | 0.00 | 0.00 | 0.00 | 53 | 1014.7 |
| 20260504014026 | 61 | 210 | 0.0 | 1.7 | 0.00 | 0.00 | 0.00 | 53 | 1014.6 |
| 20260504013025 | 62 | 210 | 1.7 | 2.6 | 0.00 | 0.00 | 0.00 | 52 | 1014.5 |
| 20260504011955 | 62 | 210 | 1.7 | 1.7 | 0.00 | 0.00 | 0.00 | 51 | 1014.4 |
| 20260504011024 | 63 | 210 | 0.0 | 0.9 | 0.00 | 0.00 | 0.00 | 49 | 1014.6 |
| 20260504005954 | 64 | 210 | 0.0 | 0.9 | 0.00 | 0.00 | 0.00 | 47 | 1014.6 |
| 20260504005024 | 65 | 210 | 0.0 | 0.9 | 0.00 | 0.00 | 0.00 | 46 | 1014.7 |
| 20260504004023 | 65 | 210 | 0.0 | 2.6 | 0.00 | 0.00 | 0.00 | 45 | 1014.9 |
| 20260504003023 | 66 | 207 | 1.7 | 1.7 | 0.00 | 0.00 | 0.00 | 44 | 1014.7 |
| 20260504002023 | 67 | 225 | 0.9 | 1.7 | 0.00 | 0.00 | 0.00 | 43 | 1014.7 |
| 20260504001022 | 68 | 235 | 0.0 | 1.7 | 0.00 | 0.00 | 0.00 | 42 | 1014.7 |
| 20260504000023 | 68 | 252 | 0.9 | 2.6 | 0.00 | 0.00 | 0.00 | 40 | 1015.0 |
| 20260503235022 | 69 | 218 | 0.0 | 4.3 | 0.00 | 0.00 | 0.00 | 39 | 1015.1 |
| 20260503234022 | 70 | 242 | 2.6 | 7.0 | 0.00 | 0.00 | 0.00 | 37 | 1015.2 |
| 20260503233022 | 70 | 229 | 3.5 | 7.0 | 0.00 | 0.00 | 0.00 | 37 | 1015.3 |
| 20260503232021 | 71 | 245 | 3.5 | 5.2 | 0.00 | 0.00 | 0.00 | 37 | 1015.2 |
| 20260503231021 | 71 | 221 | 2.6 | 5.2 | 0.00 | 0.00 | 0.00 | 38 | 1015.3 |
| 20260503230021 | 71 | 250 | 0.9 | 7.0 | 0.00 | 0.00 | 0.00 | 37 | 1015.4 |
| 20260503225020 | 72 | 317 | 4.3 | 6.1 | 0.00 | 0.00 | 0.00 | 38 | 1015.4 |
| 20260503224020 | 71 | 252 | 1.7 | 7.0 | 0.00 | 0.00 | 0.00 | 38 | 1015.3 |
| 20260503223020 | 71 | 235 | 2.6 | 8.7 | 0.00 | 0.00 | 0.00 | 38 | 1015.4 |
| 20260503222020 | 72 | 320 | 3.5 | 8.7 | 0.00 | 0.00 | 0.00 | 36 | 1015.6 |
| 20260503221019 | 72 | 203 | 0.9 | 7.0 | 0.00 | 0.00 | 0.00 | 36 | 1015.8 |
| 20260503220019 | 72 | 227 | 0.0 | 7.0 | 0.00 | 0.00 | 0.00 | 36 | 1015.9 |
| 20260503215019 | 72 | 243 | 0.9 | 6.1 | 0.00 | 0.00 | 0.00 | 39 | 1016.1 |
| 20260503214018 | 72 | 277 | 2.6 | 6.1 | 0.00 | 0.00 | 0.00 | 37 | 1016.3 |
| 20260503213018 | 72 | 296 | 0.9 | 6.1 | 0.00 | 0.00 | 0.00 | 35 | 1016.3 |
| 20260503212018 | 72 | 286 | 0.9 | 7.8 | 0.00 | 0.00 | 0.00 | 37 | 1016.5 |
| 20260503211017 | 71 | 249 | 0.9 | 7.8 | 0.00 | 0.00 | 0.00 | 37 | 1016.6 |
| 20260503210017 | 71 | 265 | 2.6 | 4.3 | 0.00 | 0.00 | 0.00 | 38 | 1016.9 |
| 20260503205017 | 71 | 207 | 1.7 | 6.1 | 0.00 | 0.00 | 0.00 | 36 | 1017.2 |
| 20260503204016 | 70 | 5 | 1.7 | 8.7 | 0.00 | 0.00 | 0.00 | 38 | 1017.1 |
| 20260503203017 | 70 | 340 | 2.6 | 7.8 | 0.00 | 0.00 | 0.00 | 37 | 1017.3 |
| 20260503202016 | 70 | 281 | 3.5 | 7.8 | 0.00 | 0.00 | 0.00 | 37 | 1017.4 |
| 20260503201016 | 70 | 266 | 3.5 | 8.7 | 0.00 | 0.00 | 0.00 | 38 | 1017.8 |
| 20260503200016 | 69 | 217 | 1.7 | 7.8 | 0.00 | 0.00 | 0.00 | 38 | 1017.9 |
| 20260503195015 | 70 | 313 | 2.6 | 7.8 | 0.00 | 0.00 | 0.00 | 39 | 1018.4 |
| 20260503194015 | 69 | 238 | 0.0 | 7.8 | 0.00 | 0.00 | 0.00 | 42 | 1018.5 |
| 20260503193014 | 68 | 287 | 2.6 | 9.6 | 0.00 | 0.00 | 0.00 | 39 | 1018.6 |
| 20260503192014 | 68 | 75 | 0.0 | 8.7 | 0.00 | 0.00 | 0.00 | 39 | 1018.7 |
| 20260503191014 | 68 | 342 | 2.6 | 8.7 | 0.00 | 0.00 | 0.00 | 39 | 1018.8 |
| 20260503190013 | 68 | 285 | 2.6 | 8.7 | 0.00 | 0.00 | 0.00 | 37 | 1018.9 |
| 20260503185013 | 68 | 190 | 1.7 | 4.3 | 0.00 | 0.00 | 0.00 | 40 | 1019.0 |
| 20260503184013 | 67 | 223 | 0.9 | 6.1 | 0.00 | 0.00 | 0.00 | 40 | 1019.3 |
| 20260503183013 | 67 | 244 | 3.5 | 6.1 | 0.00 | 0.00 | 0.00 | 41 | 1019.3 |
| 20260503182012 | 67 | 242 | 1.7 | 7.0 | 0.00 | 0.00 | 0.00 | 42 | 1019.2 |
| 20260503181012 | 66 | 43 | 1.7 | 7.0 | 0.00 | 0.00 | 0.00 | 39 | 1019.3 |
| 20260503180012 | 65 | 121 | 0.9 | 5.2 | 0.00 | 0.00 | 0.00 | 40 | 1019.6 |
| 20260503175012 | 65 | 349 | 1.7 | 5.2 | 0.00 | 0.00 | 0.00 | 41 | 1019.7 |
| 20260503174011 | 64 | 5 | 1.7 | 5.2 | 0.00 | 0.00 | 0.00 | 41 | 1019.9 |
| 20260503173011 | 63 | 234 | 1.7 | 3.5 | 0.00 | 0.00 | 0.00 | 41 | 1020.0 |
| 20260503172010 | 64 | 227 | 0.9 | 3.5 | 0.00 | 0.00 | 0.00 | 40 | 1020.1 |
| 20260503171011 | 64 | 187 | 1.7 | 3.5 | 0.00 | 0.00 | 0.00 | 46 | 1020.3 |
| 20260503151007 | 59 | 152 | 0.9 | 2.6 | 0.00 | 0.00 | 0.00 | 45 | 1021.4 |
| 20260503131005 | 45 | 335 | 0.0 | 0.9 | 0.00 | 0.00 | 0.00 | 98 | 1021.2 |